ACK - Nantucket Meml

Pirep is a free, collaborative database of all public and private airports located within the United States. All pilots are welcome to contribute, edit, and improve any airport they have local knowledge about, no registration required.
Uploaded photos will be licensed under a CC BY-SA 4.0 license. Please only upload photos you have the rights to use.
Tags
Public
Food
Lodging
Car Rental
METAR / TAF
Edit Tags
Camping
Bicycles
Swimming
Golfing
Fishing
Hot Springs
Museum
Flying Clubs
Airpark
Upcoming Events
No upcoming events. Is anything happening here soon?
*
*
*

Where exactly on/near the airport is this event taking place?

Is there a webpage with more information for this event?

Who should be contacted for more information?

What is this event all about?

Repeat every
Description
Last updated: 2023-06-13 23:14:13 EDT
Transient Parking
Fuel Location
Landing & Tie-down Fees
Last updated: 2024-04-08 08:21:32 EDT
Crew Car Availability
Flying Clubs
WiFi Access
Airport Statistics
Location: Nantucket, MA
Elevation: 46ft
Sectional: New York
Activation date: Apr 1940
Fuel: 100LL, A (prices)
Runway 06/24: 6,303ft
Runway 15/33: 4,500ft
Access: Open to the public
Current Weather — VFR
  • Weather data is strictly informational and not for flight planning purposes.
  • METAR
    2024-05-30 05:53:00 EDT
    Ceiling Wind Temperature Dewpoint Weather Visbility
    Sky clear 230° @ 4kt 55°F 55°F N/A 7SM
    Clouds: Scattered @ 11,000ft
    Raw: KACK 300953Z 23004KT 7SM SCT110 13/13 A2986 RMK AO2 SLP110 T01280128
  • TAF
    2024-05-30 05:00:00 EDT – 2024-05-30 06:00:00 EDT
    Ceiling Wind Weather Visbility
    Sky clear 190° @ 5kt N/A 6SM
    Clouds: Scattered @ 15,000ft
    Raw: KACK 300902Z 3009/3106 19005KT P6SM SCT150 FM301000 19004KT 5SM BR BKN008 FM301130 28006KT 3SM -SHRA BKN008 FM301400 30005KT P6SM BKN025 FM301700 35007KT P6SM BKN008 FM310200 36011KT 3SM BR BKN003
  • TAF
    2024-05-30 06:00:00 EDT – 2024-05-30 07:30:00 EDT
    Ceiling Wind Weather Visbility
    800ft 190° @ 4kt Mist 5SM
    Clouds: Broken @ 800ft
    Raw: KACK 300902Z 3009/3106 19005KT P6SM SCT150 FM301000 19004KT 5SM BR BKN008 FM301130 28006KT 3SM -SHRA BKN008 FM301400 30005KT P6SM BKN025 FM301700 35007KT P6SM BKN008 FM310200 36011KT 3SM BR BKN003
  • TAF
    2024-05-30 07:30:00 EDT – 2024-05-30 10:00:00 EDT
    Ceiling Wind Weather Visbility
    800ft 280° @ 6kt Light rain showers 3SM
    Clouds: Broken @ 800ft
    Raw: KACK 300902Z 3009/3106 19005KT P6SM SCT150 FM301000 19004KT 5SM BR BKN008 FM301130 28006KT 3SM -SHRA BKN008 FM301400 30005KT P6SM BKN025 FM301700 35007KT P6SM BKN008 FM310200 36011KT 3SM BR BKN003
  • TAF
    2024-05-30 10:00:00 EDT – 2024-05-30 13:00:00 EDT
    Ceiling Wind Weather Visbility
    2,500ft 300° @ 5kt N/A 6SM
    Clouds: Broken @ 2,500ft
    Raw: KACK 300902Z 3009/3106 19005KT P6SM SCT150 FM301000 19004KT 5SM BR BKN008 FM301130 28006KT 3SM -SHRA BKN008 FM301400 30005KT P6SM BKN025 FM301700 35007KT P6SM BKN008 FM310200 36011KT 3SM BR BKN003
  • TAF
    2024-05-30 13:00:00 EDT – 2024-05-30 22:00:00 EDT
    Ceiling Wind Weather Visbility
    800ft 350° @ 7kt N/A 6SM
    Clouds: Broken @ 800ft
    Raw: KACK 300902Z 3009/3106 19005KT P6SM SCT150 FM301000 19004KT 5SM BR BKN008 FM301130 28006KT 3SM -SHRA BKN008 FM301400 30005KT P6SM BKN025 FM301700 35007KT P6SM BKN008 FM310200 36011KT 3SM BR BKN003
  • TAF
    2024-05-30 22:00:00 EDT – 2024-05-31 02:00:00 EDT
    Ceiling Wind Weather Visbility
    300ft 360° @ 11kt Mist 3SM
    Clouds: Broken @ 300ft
    Raw: KACK 300902Z 3009/3106 19005KT P6SM SCT150 FM301000 19004KT 5SM BR BKN008 FM301130 28006KT 3SM -SHRA BKN008 FM301400 30005KT P6SM BKN025 FM301700 35007KT P6SM BKN008 FM310200 36011KT 3SM BR BKN003
Click/tap to add an annotation marker to the map
Airport Webcams
No webcams added yet.
Direct links to live image URLs will be displayed inline on this page. URLs to separate webpages will be linked to.
URL:
Direct links to live image URLs will be displayed inline on this page. URLs to separate webpages will be linked to.
URL:
Remarks
  • Estab prior to 1959.
  • Arff index b svcs prvd btn 0600 and 2200. for index b svcs btn 2201 and 0559, 2 hr ppr at 508-325-7569 to nantucket airport ops. ppr 2 hrs for unsked acft ops with more than 9 pax seats; call amgr 508-325-5300.
  • Be aware of high-spd mil jet & hvy hel tfc vcnty air station cape cod.
  • Arpt has noise abatement procs ctc noise officer 508-325-5300.
  • Deer & birds on & invof arpt.
Comments
Leave a comment What was your experience like at this airport?